This is the latest recevied weather packets stored in our database for station/object AK6OS. If no packets are shown the sender has not sent any weather packets the latest 10 day(s).
| Time | Temp. | Humidity | Pressure | Rain* | Wind** | Luminosity | Snow |
|---|---|---|---|---|---|---|---|
| 1777214717 | 11.67° C | 99% | 1015.2 hPa | 0 mm | - | 81 W/m² | - |
| 1777211116 | 10.56° C | 99% | 1014.6 hPa | 0 mm | - | 11 W/m² | - |
| 1777209956 | 10.56° C | 99% | 1014.4 hPa | 0 mm | - | 3 W/m² | - |
| 1777206916 | 10.56° C | 98% | 1014.2 hPa | 0 mm | - | 0 W/m² | - |
| 1777205717 | 10.56° C | 98% | 1014 hPa | 0 mm | - | 0 W/m² | - |
| 1777204517 | 10.56° C | 98% | 1014 hPa | 0 mm | - | 0 W/m² | - |
| 1777199115 | 10.56° C | 98% | 1014 hPa | 0 mm | - | 0 W/m² | - |
| 1777194917 | 11.11° C | 97% | 1014.1 hPa | 0 mm | - | 0 W/m² | - |
| 1777194317 | 10.56° C | 97% | 1014.2 hPa | 0 mm | - | 0 W/m² | - |
| 1777193117 | 11.11° C | 97% | 1014.3 hPa | 0 mm | - | 0 W/m² | - |
| 1777192517 | 11.11° C | 97% | 1014.4 hPa | 0 mm | - | 0 W/m² | - |
| 1777191318 | 11.11° C | 97% | 1014.3 hPa | 0 mm | - | 0 W/m² | - |
| 1777188918 | 11.11° C | 97% | 1014.4 hPa | 0 mm | - | 0 W/m² | - |
| 1777187716 | 11.67° C | 97% | 1014.4 hPa | 0 mm | - | 0 W/m² | - |
| 1777185916 | 11.67° C | 97% | 1014.3 hPa | 2.79 mm | - | 0 W/m² | - |
| 1777182318 | 11.67° C | 96% | 1014.2 hPa | 0 mm | - | 0 W/m² | - |
| 1777179938 | 11.67° C | 96% | 1014.3 hPa | 0 mm | - | 0 W/m² | - |
| 1777178118 | 11.67° C | 95% | 1014.1 hPa | 0 mm | - | 0 W/m² | - |
| 1777176316 | 11.67° C | 95% | 1014 hPa | 0 mm | - | 0 W/m² | - |
| 1777174517 | 12.22° C | 95% | 1013.8 hPa | 0 mm | - | 0 W/m² | - |
| 1777171517 | 11.67° C | 94% | 1013.5 hPa | 0 mm | - | 1 W/m² | - |
| 1777170357 | 12.22° C | 93% | 1013.5 hPa | 0.25 mm | - | 9 W/m² | - |
| 1777168558 | 12.22° C | 92% | 1013.5 hPa | 0.25 mm | - | 17 W/m² | - |
| 1777166735 | 12.78° C | 91% | 1013.6 hPa | 0.25 mm | - | 57 W/m² | - |
| 1777157717 | 13.89° C | 85% | 1014 hPa | 0.76 mm | - | 166 W/m² | - |
* Rain latest hour (hover to see other rain measurements)
** Current wind speed in m/s (hover to see current wind gust speed)